createdAt,value
2023-01-01T00:00:26.057Z,54.90
2023-01-01T00:02:54.468Z,51.83
2023-01-01T00:05:24.121Z,44.67
2023-01-01T00:07:52.577Z,50.20
2023-01-01T00:10:29.658Z,51.13
2023-01-01T00:12:58.823Z,52.77
2023-01-01T00:15:28.462Z,48.77
2023-01-01T00:17:57.813Z,50.23
2023-01-01T00:20:33.131Z,45.50
2023-01-01T00:23:03.515Z,47.03
2023-01-01T00:25:32.640Z,45.17
2023-01-01T00:28:01.209Z,41.67
2023-01-01T00:30:29.648Z,43.90
2023-01-01T00:32:58.229Z,43.57
2023-01-01T00:35:28.486Z,35.23
2023-01-01T00:37:56.959Z,36.10
2023-01-01T00:40:25.341Z,38.20
2023-01-01T00:42:53.626Z,34.67
2023-01-01T00:45:23.038Z,35.47
2023-01-01T00:47:53.559Z,33.87
2023-01-01T00:50:22.552Z,34.30
2023-01-01T00:52:52.628Z,39.73
2023-01-01T00:55:20.952Z,39.23
2023-01-01T00:57:49.454Z,32.70
2023-01-01T01:00:18.637Z,31.63
2023-01-01T01:02:47.144Z,30.43
2023-01-01T01:05:15.639Z,30.60
2023-01-01T01:07:44.250Z,30.13
2023-01-01T01:10:13.959Z,32.23
2023-01-01T01:12:42.418Z,30.70
2023-01-01T01:15:12.222Z,32.90
2023-01-01T01:17:41.103Z,35.13
2023-01-01T01:20:10.088Z,27.43
2023-01-01T01:22:38.518Z,27.87
2023-01-01T01:25:08.109Z,28.03
2023-01-01T01:27:37.699Z,26.77
2023-01-01T01:30:07.045Z,31.33
2023-01-01T01:32:35.508Z,32.83
2023-01-01T01:35:03.856Z,29.50
2023-01-01T01:37:32.205Z,29.77
2023-01-01T01:40:00.506Z,31.47
2023-01-01T01:42:28.950Z,29.40
2023-01-01T01:45:00.792Z,27.30
2023-01-01T01:47:33.898Z,27.97
2023-01-01T01:50:07.767Z,28.17
2023-01-01T01:52:39.704Z,30.67
2023-01-01T01:55:10.217Z,26.40
2023-01-01T01:57:41.848Z,29.33
2023-01-01T02:00:12.776Z,33.40
2023-01-01T02:02:49.523Z,32.77
2023-01-01T02:05:19.779Z,34.43
2023-01-01T02:07:48.721Z,28.53
2023-01-01T02:10:17.105Z,33.90
2023-01-01T02:12:45.740Z,31.90
2023-01-01T02:15:15.830Z,31.97
2023-01-01T02:17:55.399Z,35.53
2023-01-01T02:20:36.898Z,30.57
2023-01-01T02:23:40.476Z,29.00
2023-01-01T02:26:43.143Z,28.37
2023-01-01T02:29:28.690Z,29.90
2023-01-01T02:32:02.835Z,27.33
2023-01-01T02:34:36.119Z,35.17
2023-01-01T02:37:07.978Z,30.90
2023-01-01T02:39:42.192Z,29.57
2023-01-01T02:42:10.590Z,32.27
2023-01-01T02:44:44.803Z,30.47
2023-01-01T02:47:15.792Z,32.13
2023-01-01T02:49:56.956Z,30.47
2023-01-01T02:52:47.153Z,27.27
2023-01-01T02:55:29.992Z,32.27
2023-01-01T02:58:25.099Z,29.70
2023-01-01T03:00:59.273Z,33.43
2023-01-01T03:03:32.218Z,32.00
2023-01-01T03:06:24.461Z,37.03
2023-01-01T03:08:59.321Z,28.83
2023-01-01T03:11:35.781Z,32.33
2023-01-01T03:14:13.074Z,41.73
2023-01-01T03:16:49.207Z,30.23
2023-01-01T03:19:20.628Z,31.57
2023-01-01T03:21:54.846Z,35.23
2023-01-01T03:24:28.152Z,29.80
2023-01-01T03:26:59.264Z,30.53
2023-01-01T03:29:30.417Z,38.63
2023-01-01T03:32:02.614Z,40.90
2023-01-01T03:34:35.652Z,41.80
2023-01-01T03:37:08.384Z,38.30
2023-01-01T03:39:39.661Z,43.90
2023-01-01T03:42:17.278Z,38.53
2023-01-01T03:44:49.816Z,43.47
2023-01-01T03:47:20.586Z,39.93
2023-01-01T03:49:49.127Z,43.63
2023-01-01T03:52:27.506Z,40.43
2023-01-01T03:55:05.484Z,39.47
2023-01-01T03:57:44.557Z,43.13
2023-01-01T04:00:16.696Z,41.60
2023-01-01T04:02:51.924Z,33.53
2023-01-01T04:05:21.152Z,43.93
2023-01-01T04:10:19.224Z,38.07
2023-01-01T04:12:49.664Z,40.33
2023-01-01T04:15:19.377Z,37.23
2023-01-01T04:17:49.304Z,32.40
2023-01-01T04:20:17.907Z,35.33
2023-01-01T04:22:46.531Z,30.83
2023-01-01T04:25:17.568Z,29.33
2023-01-01T04:27:46.024Z,37.53
2023-01-01T04:30:15.954Z,36.33
2023-01-01T04:32:44.668Z,32.10
2023-01-01T04:35:15.920Z,33.53
2023-01-01T04:37:45.754Z,36.23
2023-01-01T04:40:15.162Z,38.40
2023-01-01T04:42:44.363Z,32.27
2023-01-01T04:45:15.524Z,34.97
2023-01-01T04:47:44.657Z,29.93
2023-01-01T04:50:14.366Z,35.43
2023-01-01T04:52:42.759Z,33.97
2023-01-01T04:55:11.381Z,38.50
2023-01-01T04:57:39.748Z,35.90
2023-01-01T05:00:09.260Z,32.20
2023-01-01T05:02:37.676Z,33.10
2023-01-01T05:05:06.421Z,35.17
2023-01-01T05:07:36.151Z,35.23
2023-01-01T05:10:04.683Z,34.33
2023-01-01T05:12:33.007Z,36.60
2023-01-01T05:15:01.330Z,37.70
2023-01-01T05:17:29.700Z,44.33
2023-01-01T05:19:58.416Z,39.20
2023-01-01T05:22:26.867Z,43.00
2023-01-01T05:24:56.525Z,36.63
2023-01-01T05:27:24.919Z,41.67
2023-01-01T05:29:53.207Z,33.03
2023-01-01T05:32:21.532Z,41.20
2023-01-01T05:34:49.797Z,34.40
2023-01-01T05:37:18.130Z,42.87
2023-01-01T05:39:46.518Z,36.70
2023-01-01T05:42:16.189Z,40.50
2023-01-01T05:44:44.529Z,41.80
2023-01-01T05:47:12.907Z,42.73
2023-01-01T05:49:41.283Z,43.43
2023-01-01T05:52:09.618Z,47.27
2023-01-01T05:54:37.938Z,35.13
2023-01-01T05:57:06.256Z,43.60
2023-01-01T05:59:35.869Z,46.37
2023-01-01T06:02:04.261Z,42.17
2023-01-01T06:04:32.719Z,41.23
2023-01-01T06:07:01.097Z,36.90
2023-01-01T06:09:29.415Z,41.03
2023-01-01T06:11:57.766Z,45.83
2023-01-01T06:14:26.187Z,47.37
2023-01-01T06:16:55.913Z,49.20
2023-01-01T06:19:24.355Z,44.53
2023-01-01T06:21:52.641Z,43.67
2023-01-01T06:24:21.044Z,42.80
2023-01-01T06:26:49.357Z,34.33
2023-01-01T06:29:18.274Z,44.20
2023-01-01T06:31:46.589Z,46.37
2023-01-01T06:34:16.241Z,43.77
2023-01-01T06:36:44.525Z,38.67
2023-01-01T06:39:12.915Z,36.53
2023-01-01T06:41:41.221Z,42.07
2023-01-01T06:44:09.531Z,46.53
2023-01-01T06:46:38.071Z,39.30
2023-01-01T06:49:07.848Z,29.97
2023-01-01T06:51:39.399Z,41.03
2023-01-01T06:54:09.011Z,35.77
2023-01-01T06:56:38.229Z,36.73
2023-01-01T06:59:07.062Z,32.93
2023-01-01T07:01:37.664Z,24.30
2023-01-01T07:04:08.350Z,29.03
2023-01-01T07:06:38.639Z,20.10
2023-01-01T07:09:08.117Z,28.60
2023-01-01T07:11:37.185Z,36.70
2023-01-01T07:14:05.734Z,35.00
2023-01-01T07:16:34.349Z,32.87
2023-01-01T07:19:02.748Z,28.17
2023-01-01T07:21:33.784Z,36.33
2023-01-01T07:24:05.183Z,36.43
2023-01-01T07:26:35.069Z,30.37
2023-01-01T07:29:07.906Z,34.17
2023-01-01T07:31:37.591Z,30.40
2023-01-01T07:34:06.603Z,25.13
2023-01-01T07:36:35.285Z,26.53
2023-01-01T07:39:04.993Z,31.30
2023-01-01T07:41:33.468Z,28.70
2023-01-01T07:44:01.930Z,24.97
2023-01-01T07:46:31.054Z,32.17
2023-01-01T07:48:59.741Z,29.90
2023-01-01T07:51:28.133Z,33.20
2023-01-01T07:54:02.170Z,32.10
2023-01-01T07:56:37.005Z,26.77
2023-01-01T07:59:05.621Z,31.13
2023-01-01T08:01:37.537Z,34.30
2023-01-01T08:04:06.357Z,28.90
2023-01-01T08:06:34.856Z,30.63
2023-01-01T08:09:03.269Z,28.10
2023-01-01T08:11:31.600Z,30.80
2023-01-01T08:14:01.422Z,25.20
2023-01-01T08:16:29.949Z,32.10
2023-01-01T08:18:58.600Z,37.73
2023-01-01T08:21:26.967Z,32.50
2023-01-01T08:23:55.370Z,32.53
2023-01-01T08:26:30.367Z,27.57
2023-01-01T08:29:00.722Z,38.80
2023-01-01T08:31:29.477Z,30.53
2023-01-01T08:33:57.947Z,36.70
2023-01-01T08:36:26.403Z,38.00
2023-01-01T08:38:54.806Z,37.70
2023-01-01T08:41:23.245Z,32.20
2023-01-01T08:43:51.836Z,34.63
2023-01-01T08:46:21.514Z,35.40
2023-01-01T08:48:49.810Z,35.87
2023-01-01T08:51:18.514Z,32.90
2023-01-01T08:53:50.892Z,33.23
2023-01-01T08:56:20.902Z,31.27
2023-01-01T08:58:49.721Z,32.73
2023-01-01T09:01:21.796Z,30.73
2023-01-01T09:03:51.631Z,28.93
2023-01-01T09:06:20.128Z,32.77
2023-01-01T09:08:48.765Z,33.33
2023-01-01T09:11:24.164Z,33.47
2023-01-01T09:13:53.169Z,29.13
2023-01-01T09:16:22.334Z,29.40
2023-01-01T09:18:52.240Z,28.77
2023-01-01T09:21:20.709Z,24.43
2023-01-01T09:23:49.121Z,29.40
2023-01-01T09:26:18.345Z,26.07
2023-01-01T09:28:46.677Z,28.97
2023-01-01T09:31:15.059Z,26.07
2023-01-01T09:33:43.551Z,23.43
2023-01-01T09:36:27.490Z,27.10
2023-01-01T09:38:57.023Z,26.20
2023-01-01T09:41:38.156Z,24.27
2023-01-01T09:44:17.413Z,25.37
2023-01-01T09:46:45.975Z,24.40
2023-01-01T09:49:21.276Z,24.80
2023-01-01T09:51:58.299Z,24.23
2023-01-01T09:54:33.440Z,26.30
2023-01-01T09:57:04.039Z,23.13
2023-01-01T09:59:32.697Z,22.33
2023-01-01T10:02:12.116Z,22.33
2023-01-01T10:04:56.139Z,23.43
2023-01-01T10:07:37.733Z,21.63
2023-01-01T10:10:16.912Z,23.20
2023-01-01T10:12:53.500Z,25.37
2023-01-01T10:15:25.542Z,22.00
2023-01-01T10:17:59.016Z,23.37
2023-01-01T10:20:34.707Z,23.10
2023-01-01T10:23:13.322Z,22.17
2023-01-01T10:25:43.253Z,21.57
2023-01-01T10:28:17.061Z,23.40
2023-01-01T10:30:45.756Z,21.27
2023-01-01T10:33:15.375Z,24.30
2023-01-01T10:35:46.884Z,23.47
2023-01-01T10:38:23.982Z,20.77
2023-01-01T10:40:53.622Z,22.70
2023-01-01T10:43:22.114Z,20.33
2023-01-01T10:45:54.470Z,18.93
2023-01-01T10:48:24.080Z,20.20
2023-01-01T10:50:55.354Z,20.50
2023-01-01T10:53:28.360Z,19.70
2023-01-01T10:56:06.701Z,21.00
2023-01-01T10:58:45.084Z,21.27
2023-01-01T11:01:20.940Z,21.50
2023-01-01T11:04:01.348Z,21.37
2023-01-01T11:06:34.861Z,21.10
2023-01-01T11:09:08.091Z,23.43
2023-01-01T11:11:44.940Z,21.40
2023-01-01T11:14:22.907Z,22.97
2023-01-01T11:16:51.564Z,22.37
2023-01-01T11:19:24.447Z,22.50
2023-01-01T11:21:52.878Z,22.87
2023-01-01T11:24:24.711Z,23.27
2023-01-01T11:26:55.381Z,20.07
2023-01-01T11:29:29.201Z,20.83
2023-01-01T11:32:00.945Z,21.47
2023-01-01T11:34:33.470Z,20.03
2023-01-01T11:37:10.704Z,22.30
2023-01-01T11:39:44.169Z,20.47
2023-01-01T11:42:19.783Z,19.23
2023-01-01T11:44:51.515Z,23.73
2023-01-01T11:47:28.569Z,23.87
2023-01-01T11:50:00.960Z,22.43
2023-01-01T11:52:36.653Z,20.77
2023-01-01T11:55:23.686Z,22.03
2023-01-01T11:58:00.911Z,21.23
2023-01-01T12:00:32.893Z,21.40
2023-01-01T12:03:05.795Z,20.53
2023-01-01T12:05:45.130Z,20.37
2023-01-01T12:08:17.923Z,20.90
2023-01-01T12:10:52.956Z,19.80
2023-01-01T12:13:25.517Z,19.70
2023-01-01T12:16:02.639Z,20.10
2023-01-01T12:18:38.347Z,20.40
2023-01-01T12:21:13.364Z,18.97
2023-01-01T12:23:42.060Z,18.90
2023-01-01T12:26:22.288Z,18.13
2023-01-01T12:29:15.010Z,18.43
2023-01-01T12:31:51.351Z,17.53
2023-01-01T12:34:27.378Z,17.30
2023-01-01T12:37:02.413Z,18.37
2023-01-01T12:40:17.135Z,17.80
2023-01-01T12:43:01.800Z,17.60
2023-01-01T12:45:57.391Z,17.23
2023-01-01T12:48:41.609Z,16.57
2023-01-01T12:51:24.659Z,15.73
2023-01-01T12:54:02.533Z,15.30
2023-01-01T12:56:39.530Z,15.07
2023-01-01T12:59:14.000Z,14.33
2023-01-01T13:01:42.989Z,13.97
2023-01-01T13:04:15.403Z,14.03
2023-01-01T13:06:48.383Z,14.90
2023-01-01T13:09:19.027Z,14.80
2023-01-01T13:11:51.842Z,13.93
2023-01-01T13:14:21.493Z,14.17
2023-01-01T13:16:53.909Z,15.37
2023-01-01T13:19:27.989Z,15.40
2023-01-01T13:21:56.370Z,16.10
2023-01-01T13:24:26.485Z,15.73
2023-01-01T13:26:55.416Z,16.37
2023-01-01T13:29:47.351Z,16.87
2023-01-01T13:32:16.879Z,15.97
2023-01-01T13:35:18.209Z,15.83
2023-01-01T13:37:48.073Z,15.83
2023-01-01T13:40:53.100Z,15.00
2023-01-01T13:43:27.228Z,14.27
2023-01-01T13:46:11.650Z,14.17
2023-01-01T13:49:19.588Z,15.93
2023-01-01T13:52:32.489Z,15.37
2023-01-01T13:55:39.797Z,13.77
2023-01-01T13:58:36.527Z,15.37
2023-01-01T14:01:38.063Z,14.00
2023-01-01T14:04:13.654Z,14.73
2023-01-01T14:06:44.943Z,15.77
2023-01-01T14:09:15.547Z,14.90
2023-01-01T14:11:44.056Z,13.57
2023-01-01T14:14:31.027Z,15.30
2023-01-01T14:17:03.241Z,14.87
2023-01-01T14:19:31.729Z,15.07
2023-01-01T14:22:00.790Z,14.97
2023-01-01T14:24:29.824Z,14.47
2023-01-01T14:26:58.252Z,14.30
2023-01-01T14:29:30.289Z,14.27
2023-01-01T14:32:02.567Z,14.00
2023-01-01T14:34:32.727Z,13.50
2023-01-01T14:37:03.306Z,12.83
2023-01-01T14:39:32.953Z,13.20
2023-01-01T14:42:03.996Z,13.73
2023-01-01T14:44:37.254Z,12.60
2023-01-01T14:47:19.988Z,14.10
2023-01-01T14:49:50.626Z,13.00
2023-01-01T14:52:25.716Z,13.20
2023-01-01T14:54:55.109Z,12.23
2023-01-01T14:57:28.240Z,12.23
2023-01-01T14:59:56.869Z,12.57
2023-01-01T15:02:30.519Z,13.70
2023-01-01T15:05:00.137Z,13.30
2023-01-01T15:07:30.455Z,13.40
2023-01-01T15:10:01.193Z,13.90
2023-01-01T15:12:30.516Z,13.10
2023-01-01T15:14:59.180Z,13.57
2023-01-01T15:17:29.268Z,12.87
2023-01-01T15:20:07.171Z,13.37
2023-01-01T15:22:39.145Z,14.47
2023-01-01T15:25:13.133Z,13.90
2023-01-01T15:27:41.633Z,12.87
2023-01-01T15:30:25.560Z,14.67
2023-01-01T15:32:56.651Z,13.77
2023-01-01T15:35:32.281Z,13.97
2023-01-01T15:38:04.138Z,13.43
2023-01-01T15:40:35.816Z,14.60
2023-01-01T15:43:15.849Z,13.43
2023-01-01T15:45:53.726Z,13.73
2023-01-01T15:48:31.108Z,14.17
2023-01-01T15:51:07.579Z,14.00
2023-01-01T15:53:53.610Z,14.23
2023-01-01T15:56:25.602Z,13.53
2023-01-01T15:58:57.082Z,14.07
2023-01-01T16:01:28.527Z,14.23
2023-01-01T16:04:03.602Z,14.47
2023-01-01T16:06:32.194Z,13.97
2023-01-01T16:09:00.658Z,14.63
2023-01-01T16:11:29.146Z,13.77
2023-01-01T16:13:57.557Z,14.33
2023-01-01T16:16:29.407Z,15.67
2023-01-01T16:18:59.629Z,14.50
2023-01-01T16:21:29.709Z,13.03
2023-01-01T16:23:58.645Z,14.07
2023-01-01T16:26:26.996Z,14.20
2023-01-01T16:28:55.332Z,14.40
2023-01-01T16:31:28.546Z,14.00
2023-01-01T16:34:00.021Z,14.53
2023-01-01T16:36:29.426Z,13.10
2023-01-01T16:38:58.437Z,13.47
2023-01-01T16:41:30.311Z,15.83
2023-01-01T16:43:58.982Z,14.10
2023-01-01T16:46:28.207Z,14.97
2023-01-01T16:48:56.783Z,15.00
2023-01-01T16:51:29.873Z,14.07
2023-01-01T16:54:00.962Z,15.20
2023-01-01T16:56:29.695Z,15.37
2023-01-01T16:59:03.208Z,15.03
2023-01-01T17:01:32.259Z,14.67
2023-01-01T17:04:01.576Z,15.50
2023-01-01T17:06:31.383Z,13.90
2023-01-01T17:09:00.944Z,14.50
2023-01-01T17:11:29.546Z,13.97
2023-01-01T17:13:59.767Z,14.17
2023-01-01T17:16:36.264Z,15.63
2023-01-01T17:19:16.736Z,15.73
2023-01-01T17:21:48.966Z,13.97
2023-01-01T17:24:18.724Z,16.03
2023-01-01T17:26:51.188Z,14.47
2023-01-01T17:29:19.599Z,13.93
2023-01-01T17:31:48.010Z,14.50
2023-01-01T17:34:16.510Z,14.77
2023-01-01T17:36:46.536Z,13.27
2023-01-01T17:39:16.855Z,13.83
2023-01-01T17:41:46.266Z,14.77
2023-01-01T17:44:14.723Z,15.30
2023-01-01T17:46:44.554Z,14.57
2023-01-01T17:49:13.139Z,15.30
2023-01-01T17:51:41.550Z,16.00
2023-01-01T17:54:13.880Z,15.30
2023-01-01T17:56:43.684Z,16.67
2023-01-01T17:59:12.191Z,16.27
2023-01-01T18:01:40.704Z,15.57
2023-01-01T18:04:11.180Z,15.83
2023-01-01T18:06:43.674Z,15.13
2023-01-01T18:09:16.351Z,15.50
2023-01-01T18:11:46.328Z,16.67
2023-01-01T18:14:19.585Z,17.43
2023-01-01T18:16:51.007Z,18.03
2023-01-01T18:19:19.944Z,16.13
2023-01-01T18:21:48.328Z,17.47
2023-01-01T18:24:17.469Z,17.17
2023-01-01T18:26:47.183Z,17.77
2023-01-01T18:29:15.659Z,17.47
2023-01-01T18:31:45.166Z,18.10
2023-01-01T18:34:13.569Z,18.20
2023-01-01T18:36:42.376Z,18.43
2023-01-01T18:39:16.616Z,17.80
2023-01-01T18:42:04.505Z,19.00
2023-01-01T18:44:34.739Z,17.83
2023-01-01T18:47:14.802Z,18.27
2023-01-01T18:49:48.575Z,17.27
2023-01-01T18:52:23.506Z,18.13
2023-01-01T18:55:12.186Z,18.33
2023-01-01T18:57:42.774Z,18.67
2023-01-01T19:00:22.511Z,19.10
2023-01-01T19:02:58.045Z,16.83
2023-01-01T19:05:28.712Z,17.10
2023-01-01T19:08:13.371Z,18.23
2023-01-01T19:10:44.787Z,17.43
2023-01-01T19:13:21.015Z,16.70
2023-01-01T19:15:51.259Z,17.80
2023-01-01T19:18:22.298Z,19.10
2023-01-01T19:20:57.059Z,18.80
2023-01-01T19:23:25.947Z,18.33
2023-01-01T19:25:54.658Z,17.77
2023-01-01T19:28:38.440Z,17.27
2023-01-01T19:31:08.186Z,17.23
2023-01-01T19:33:36.615Z,17.60
2023-01-01T19:36:05.193Z,18.57
2023-01-01T19:38:33.556Z,18.60
2023-01-01T19:41:01.889Z,17.70
2023-01-01T19:43:30.339Z,18.60
2023-01-01T19:46:00.009Z,18.33
2023-01-01T19:48:29.354Z,19.03
2023-01-01T19:50:57.969Z,18.07
2023-01-01T19:53:26.369Z,19.20
2023-01-01T19:55:54.643Z,17.97
2023-01-01T19:58:23.266Z,19.17
2023-01-01T20:00:51.791Z,19.10
2023-01-01T20:06:10.880Z,17.90
2023-01-01T20:08:39.492Z,20.77
2023-01-01T20:11:08.482Z,21.30
2023-01-01T20:13:36.897Z,19.33
2023-01-01T20:16:05.550Z,20.07
2023-01-01T20:18:35.434Z,20.87
2023-01-01T20:21:25.879Z,20.13
2023-01-01T20:23:55.062Z,19.33
2023-01-01T20:26:26.185Z,19.63
2023-01-01T20:29:12.293Z,19.73
2023-01-01T20:31:41.994Z,19.53
2023-01-01T20:34:11.938Z,17.93
2023-01-01T20:36:57.931Z,18.47
2023-01-01T20:39:26.824Z,18.03
2023-01-01T20:41:55.651Z,16.93
2023-01-01T20:44:24.016Z,17.97
2023-01-01T20:46:52.498Z,18.27
2023-01-01T20:49:22.939Z,18.90
2023-01-01T20:51:53.145Z,19.20
2023-01-01T20:54:22.718Z,18.43
2023-01-01T20:56:51.312Z,18.80
2023-01-01T20:59:37.347Z,18.60
2023-01-01T21:02:07.709Z,20.30
2023-01-01T21:04:39.581Z,17.10
2023-01-01T21:07:10.066Z,18.87
2023-01-01T21:09:39.162Z,19.07
2023-01-01T21:12:08.270Z,18.67
2023-01-01T21:14:37.150Z,17.37
2023-01-01T21:17:18.583Z,17.83
2023-01-01T21:19:48.727Z,18.50
2023-01-01T21:22:17.154Z,18.10
2023-01-01T21:24:51.544Z,19.27
2023-01-01T21:27:27.186Z,18.07
2023-01-01T21:29:58.495Z,17.60
2023-01-01T21:32:34.466Z,17.13
2023-01-01T21:35:19.248Z,17.07
2023-01-01T21:37:50.195Z,16.43
2023-01-01T21:40:41.423Z,18.03
2023-01-01T21:43:35.123Z,15.93
2023-01-01T21:46:26.352Z,15.93
2023-01-01T21:48:57.890Z,14.17
2023-01-01T21:51:30.906Z,17.67
2023-01-01T21:54:24.629Z,17.77
2023-01-01T21:57:03.095Z,17.83
2023-01-01T21:59:37.135Z,17.83
2023-01-01T22:02:35.071Z,18.40
2023-01-01T22:05:30.605Z,17.23
2023-01-01T22:08:13.553Z,18.10
2023-01-01T22:10:42.026Z,17.47
2023-01-01T22:13:17.684Z,16.83
2023-01-01T22:15:47.164Z,17.20
2023-01-01T22:18:27.077Z,17.13
2023-01-01T22:20:56.636Z,17.33
2023-01-01T22:23:36.196Z,17.20
2023-01-01T22:26:18.001Z,16.63
2023-01-01T22:28:50.415Z,16.63
2023-01-01T22:31:22.868Z,17.30
2023-01-01T22:33:53.993Z,18.90
2023-01-01T22:36:26.413Z,19.23
2023-01-01T22:38:59.149Z,18.67
2023-01-01T22:41:27.609Z,18.63
2023-01-01T22:44:01.863Z,18.87
2023-01-01T22:46:34.073Z,18.57
2023-01-01T22:49:12.346Z,17.87
2023-01-01T22:51:43.498Z,18.03
2023-01-01T22:54:13.358Z,18.57
2023-01-01T22:56:41.824Z,18.33
2023-01-01T22:59:10.340Z,18.47
2023-01-01T23:01:38.728Z,17.87
2023-01-01T23:04:07.047Z,18.27
2023-01-01T23:06:35.477Z,18.60
2023-01-01T23:09:03.911Z,17.30
2023-01-01T23:11:33.601Z,18.20
2023-01-01T23:14:19.262Z,18.00
2023-01-01T23:16:47.671Z,17.70
2023-01-01T23:19:15.982Z,18.00
2023-01-01T23:21:44.667Z,18.57
2023-01-01T23:24:16.966Z,17.53
2023-01-01T23:26:48.188Z,17.90
2023-01-01T23:29:18.250Z,18.03
2023-01-01T23:31:47.776Z,17.53
2023-01-01T23:34:16.771Z,17.20
2023-01-01T23:36:45.871Z,18.83
2023-01-01T23:39:14.320Z,19.43
2023-01-01T23:41:42.599Z,18.37
2023-01-01T23:44:12.249Z,18.00
2023-01-01T23:46:41.032Z,18.10
2023-01-01T23:49:09.804Z,17.73
2023-01-01T23:51:40.110Z,19.07
2023-01-01T23:54:08.702Z,18.13
2023-01-01T23:56:37.128Z,18.83
2023-01-01T23:59:05.560Z,20.13
